Time;durP1;ratioP1;P1;durP2;ratioP2;P2;SDS_P1;SDS_P2;PMS_P1;PMS_P2;Temp;Humidity;BMP_temperature;BMP_pressure;BME280_temperature;BME280_humidity;BME280_pressure;Samples;Min_cycle;Max_cycle;Signal;HPM_P1;HPM_P2
2023/08/15 00:00:54;;;;;;;5.67;4.00;;;;;;;24.00;81.27;100093.91;5090955;28;20482;-61
2023/08/15 00:03:19;;;;;;;5.67;4.20;;;;;;;23.99;81.32;100081.53;5108609;28;20752;-61
2023/08/15 00:05:45;;;;;;;4.93;3.87;;;;;;;24.00;81.14;100088.97;5091012;28;20252;-62
2023/08/15 00:08:10;;;;;;;5.40;4.47;;;;;;;24.00;81.27;100088.13;5088951;28;20178;-61
2023/08/15 00:10:36;;;;;;;5.90;4.43;;;;;;;24.00;81.12;100080.31;5090745;28;20647;-62
2023/08/15 00:13:03;;;;;;;6.50;3.90;;;;;;;24.00;81.02;100085.25;5089650;28;20534;-62
2023/08/15 00:15:30;;;;;;;5.97;3.60;;;;;;;24.00;81.23;100079.47;5099037;27;20169;-61
2023/08/15 00:17:55;;;;;;;5.50;3.60;;;;;;;24.00;81.08;100080.31;5101619;27;20472;-62
2023/08/15 00:20:21;;;;;;;6.20;4.10;;;;;;;24.00;80.97;100086.09;5089630;28;20462;-61
2023/08/15 00:22:46;;;;;;;6.13;4.00;;;;;;;23.99;80.78;100081.53;5073881;28;20201;-62
2023/08/15 00:25:12;;;;;;;5.57;3.90;;;;;;;24.00;81.10;100074.53;5089523;28;20163;-62
2023/08/15 00:27:37;;;;;;;5.70;4.40;;;;;;;23.99;81.14;100070.00;5089712;28;20162;-62
2023/08/15 00:30:04;;;;;;;5.30;4.20;;;;;;;24.00;81.02;100065.88;5091693;28;20189;-62
2023/08/15 00:32:35;;;;;;;10.00;4.57;;;;;;;23.99;80.97;100070.00;5099326;28;20181;-61
2023/08/15 00:35:04;;;;;;;5.47;4.33;;;;;;;23.99;81.07;100067.09;5105025;28;20995;-61
2023/08/15 00:37:29;;;;;;;7.43;3.83;;;;;;;24.00;81.07;100062.19;5089609;28;20467;-61
2023/08/15 00:39:55;;;;;;;8.40;3.73;;;;;;;24.00;80.72;100059.28;5088936;28;20443;-61
2023/08/15 00:42:20;;;;;;;8.80;3.73;;;;;;;24.00;81.10;100056.41;5093261;27;20511;-62
2023/08/15 00:44:46;;;;;;;6.07;4.10;;;;;;;23.99;81.02;100061.34;5100239;27;20580;-62
2023/08/15 00:47:11;;;;;;;5.60;3.67;;;;;;;23.98;80.83;100053.94;5094551;28;20575;-62
2023/08/15 00:49:37;;;;;;;6.20;4.20;;;;;;;24.00;81.03;100067.94;5106155;28;20704;-62
2023/08/15 00:52:03;;;;;;;5.07;4.20;;;;;;;23.99;80.90;100074.97;5070172;28;20209;-62
2023/08/15 00:54:29;;;;;;;7.20;4.60;;;;;;;24.00;81.02;100086.09;5088666;28;20177;-61
2023/08/15 00:56:54;;;;;;;4.80;4.20;;;;;;;24.00;80.98;100079.47;5107948;28;20439;-61
2023/08/15 00:59:20;;;;;;;4.87;4.37;;;;;;;24.00;81.07;100070.81;5102697;28;20178;-62
2023/08/15 01:01:45;;;;;;;5.93;3.90;;;;;;;23.99;80.74;100072.88;5070727;28;20170;-62
2023/08/15 01:04:11;;;;;;;6.70;3.90;;;;;;;23.99;80.82;100072.88;5070300;28;20175;-62
2023/08/15 01:06:36;;;;;;;5.50;4.20;;;;;;;24.00;80.88;100067.94;5073023;28;20767;-62
2023/08/15 01:09:02;;;;;;;8.13;4.07;;;;;;;23.99;80.63;100069.19;5088907;28;20544;-62
2023/08/15 01:11:30;;;;;;;7.00;4.10;;;;;;;23.98;80.80;100068.34;5091310;28;20178;-63
2023/08/15 01:14:01;;;;;;;4.97;3.90;;;;;;;23.99;80.96;100072.88;5082583;28;20181;-62
2023/08/15 01:16:28;;;;;;;5.60;4.30;;;;;;;23.99;81.08;100072.88;5090867;28;20410;-61
2023/08/15 01:19:22;;;;;;;5.40;3.90;;;;;;;23.98;80.66;100088.53;5090812;28;21000;-62
2023/08/15 01:21:48;;;;;;;5.87;3.90;;;;;;;23.98;80.64;100088.53;5091795;28;20527;-62
2023/08/15 01:24:14;;;;;;;6.43;4.23;;;;;;;23.99;80.67;100089.38;5094498;27;20419;-62
2023/08/15 01:26:40;;;;;;;4.63;3.70;;;;;;;23.99;80.71;100080.72;5082166;28;20661;-61
2023/08/15 01:29:05;;;;;;;7.60;4.20;;;;;;;23.99;80.54;100083.63;5095789;28;20442;-62
2023/08/15 01:31:35;;;;;;;6.93;4.50;;;;;;;24.00;80.84;100082.38;5108856;28;20166;-61
2023/08/15 01:34:12;;;;;;;4.53;3.80;;;;;;;23.98;80.53;100077.00;5103466;28;21038;-61
2023/08/15 01:36:49;;;;;;;5.40;4.43;;;;;;;23.98;80.74;100059.72;5110792;27;20417;-61
2023/08/15 01:39:15;;;;;;;5.47;4.60;;;;;;;23.99;80.63;100051.88;5128424;27;20411;-62
2023/08/15 01:41:41;;;;;;;5.03;4.03;;;;;;;23.98;80.79;100059.72;5109662;27;20965;-61
2023/08/15 01:44:06;;;;;;;7.50;4.10;;;;;;;23.99;80.45;100055.56;5100261;27;20435;-62
2023/08/15 01:46:32;;;;;;;5.00;4.13;;;;;;;23.98;80.78;100059.72;5083617;28;20213;-62
2023/08/15 01:48:59;;;;;;;7.57;4.43;;;;;;;23.98;80.54;100056.81;5072678;28;20186;-62
2023/08/15 01:51:25;;;;;;;7.03;4.13;;;;;;;23.99;80.41;100060.53;5101941;28;20182;-62
2023/08/15 01:53:50;;;;;;;5.17;3.93;;;;;;;23.98;80.57;100065.47;5102055;28;20435;-61
2023/08/15 01:56:16;;;;;;;6.50;4.83;;;;;;;23.98;80.86;100068.34;5107664;28;20228;-62
2023/08/15 01:58:41;;;;;;;5.13;3.90;;;;;;;23.99;80.54;100083.63;5128110;28;20501;-61
2023/08/15 02:01:07;;;;;;;6.97;4.30;;;;;;;23.98;80.75;100082.78;5106816;28;20174;-61
2023/08/15 02:03:32;;;;;;;4.90;3.93;;;;;;;23.97;80.59;100098.44;5087288;28;20177;-61
2023/08/15 02:05:58;;;;;;;5.13;4.07;;;;;;;23.98;80.23;100094.31;5086982;28;20198;-61
2023/08/15 02:08:23;;;;;;;5.50;4.17;;;;;;;23.98;80.51;100094.31;5089506;28;20247;-62
2023/08/15 02:10:50;;;;;;;4.83;4.00;;;;;;;23.98;80.32;100087.75;5087816;28;20575;-62
2023/08/15 02:13:16;;;;;;;8.50;4.40;;;;;;;23.98;80.59;100091.44;5093479;28;20184;-61
2023/08/15 02:15:41;;;;;;;5.83;4.13;;;;;;;23.98;80.20;100099.28;5108454;28;20568;-62
2023/08/15 02:18:07;;;;;;;8.57;5.20;;;;;;;23.97;80.33;100092.69;5107802;28;20226;-61
2023/08/15 02:20:32;;;;;;;6.57;4.67;;;;;;;23.99;80.51;100089.38;5112623;28;20234;-61
2023/08/15 02:22:57;;;;;;;6.17;4.10;;;;;;;23.98;80.31;100091.44;5118385;28;20644;-62
2023/08/15 02:25:23;;;;;;;6.03;4.30;;;;;;;23.97;80.52;100088.97;5099425;28;20182;-61
2023/08/15 02:27:49;;;;;;;6.20;4.50;;;;;;;23.98;80.41;100088.53;5090142;28;20187;-62
2023/08/15 02:30:14;;;;;;;5.00;4.03;;;;;;;23.97;80.41;100084.03;5089550;28;20193;-61
2023/08/15 02:32:40;;;;;;;7.60;4.20;;;;;;;23.98;80.22;100079.09;5089962;28;20296;-62
2023/08/15 02:35:06;;;;;;;4.93;4.43;;;;;;;23.97;80.39;100080.31;5088883;28;20179;-61
2023/08/15 02:37:31;;;;;;;6.47;4.20;;;;;;;23.97;79.80;100072.50;5087083;28;20166;-61
2023/08/15 02:39:57;;;;;;;8.23;4.00;;;;;;;23.97;80.46;100072.50;5102102;28;20445;-61
2023/08/15 02:42:22;;;;;;;5.70;4.63;;;;;;;23.98;80.41;100076.22;5107303;28;20173;-61
2023/08/15 02:44:47;;;;;;;6.10;4.10;;;;;;;23.96;80.16;100085.28;5072212;28;20634;-61
2023/08/15 02:47:13;;;;;;;5.60;4.23;;;;;;;23.97;80.08;100095.56;5086501;28;20195;-62
2023/08/15 02:49:39;;;;;;;6.60;4.53;;;;;;;23.97;79.96;100086.91;5089542;28;20202;-62
2023/08/15 02:52:05;;;;;;;5.30;4.10;;;;;;;23.97;80.10;100084.03;5096308;28;20190;-61
2023/08/15 02:54:30;;;;;;;5.00;4.10;;;;;;;23.96;80.02;100085.28;5102550;28;20232;-62
2023/08/15 02:56:56;;;;;;;8.20;3.70;;;;;;;23.97;79.77;100091.84;5111485;28;20173;-62
2023/08/15 02:59:21;;;;;;;6.23;4.70;;;;;;;23.97;79.79;100095.56;5111884;28;20178;-61
2023/08/15 03:01:47;;;;;;;6.23;3.80;;;;;;;23.97;79.84;100101.34;5111817;28;20174;-61
2023/08/15 03:04:12;;;;;;;4.83;4.00;;;;;;;23.97;79.75;100100.50;5107703;28;20243;-62
2023/08/15 03:06:38;;;;;;;6.57;4.37;;;;;;;23.96;79.78;100102.59;5111501;28;20240;-62
2023/08/15 03:09:04;;;;;;;6.53;4.00;;;;;;;23.96;80.02;100107.53;5105752;28;20252;-62
2023/08/15 03:11:29;;;;;;;6.27;4.40;;;;;;;23.97;79.96;100118.63;5104980;27;20178;-61
2023/08/15 03:13:55;;;;;;;8.30;4.20;;;;;;;23.97;79.91;100123.56;5111648;28;21071;-62
2023/08/15 03:16:21;;;;;;;4.10;3.63;;;;;;;23.96;79.86;100119.88;5094544;28;20205;-61
2023/08/15 03:18:46;;;;;;;5.97;4.03;;;;;;;23.96;79.83;100119.06;5090535;28;20240;-62
2023/08/15 03:21:12;;;;;;;4.70;3.83;;;;;;;23.96;79.59;100102.59;5082262;28;20205;-61
2023/08/15 03:23:37;;;;;;;4.70;3.83;;;;;;;23.96;79.62;100108.34;5097422;28;20178;-62
2023/08/15 03:26:04;;;;;;;7.20;4.20;;;;;;;23.95;79.68;100112.47;5089374;28;20202;-61
2023/08/15 03:28:29;;;;;;;5.60;3.73;;;;;;;23.95;79.78;100112.47;5089915;28;20699;-62
2023/08/15 03:30:55;;;;;;;4.63;3.70;;;;;;;23.96;79.98;100114.13;5091287;28;20448;-61
2023/08/15 03:33:20;;;;;;;4.60;3.70;;;;;;;23.96;79.94;100124.81;5088870;28;20201;-61
2023/08/15 03:35:50;;;;;;;5.70;4.50;;;;;;;23.94;79.84;100116.59;5090891;28;20177;-62
2023/08/15 03:38:17;;;;;;;5.03;4.00;;;;;;;23.95;79.61;100126.91;5091564;28;20174;-61
2023/08/15 03:40:47;;;;;;;6.23;3.90;;;;;;;23.94;79.88;100128.13;5091774;28;20434;-61
2023/08/15 03:43:13;;;;;;;6.33;3.97;;;;;;;23.96;79.76;100124.81;5109926;28;20450;-61
2023/08/15 03:45:39;;;;;;;5.30;3.97;;;;;;;23.95;79.78;100132.66;5114518;27;20463;-62
2023/08/15 03:48:05;;;;;;;5.70;3.87;;;;;;;23.95;79.94;100132.66;5110515;28;20613;-61
2023/08/15 03:50:37;;;;;;;5.33;3.53;;;;;;;23.94;79.77;100128.13;5104929;28;20289;-61
2023/08/15 03:53:03;;;;;;;6.47;3.93;;;;;;;23.95;79.78;100141.31;5110261;28;20542;-61
2023/08/15 03:55:29;;;;;;;7.90;4.17;;;;;;;23.94;79.47;100135.97;5110714;28;20534;-62
2023/08/15 03:57:55;;;;;;;4.73;3.90;;;;;;;23.94;79.71;100145.44;5106490;28;20186;-61
2023/08/15 04:00:20;;;;;;;4.17;3.30;;;;;;;23.95;79.77;100146.25;5110685;28;20519;-62
2023/08/15 04:02:46;;;;;;;4.80;3.97;;;;;;;23.95;79.67;100146.25;5107523;28;20184;-62
2023/08/15 04:05:12;;;;;;;6.57;3.93;;;;;;;23.94;79.50;100145.44;5090174;28;20204;-61
2023/08/15 04:07:38;;;;;;;6.37;4.20;;;;;;;23.95;79.52;100147.09;5088991;28;20857;-61
2023/08/15 04:10:04;;;;;;;4.53;3.90;;;;;;;23.95;79.20;100144.22;5092256;28;20190;-62
2023/08/15 04:12:29;;;;;;;5.53;3.93;;;;;;;23.94;79.36;100148.31;5089829;28;20416;-61
2023/08/15 04:14:55;;;;;;;5.40;3.87;;;;;;;23.95;79.47;100154.91;5091946;28;20185;-61
2023/08/15 04:17:20;;;;;;;4.97;3.60;;;;;;;23.95;79.44;100154.91;5068256;28;20234;-62
2023/08/15 04:19:46;;;;;;;5.50;3.80;;;;;;;23.93;79.50;100155.31;5086581;28;20166;-62
2023/08/15 04:22:12;;;;;;;6.00;4.43;;;;;;;23.94;79.29;100156.97;5102340;27;20761;-62
2023/08/15 04:24:37;;;;;;;6.17;3.80;;;;;;;23.92;79.27;100168.09;5108208;27;20174;-61
2023/08/15 04:27:04;;;;;;;6.90;4.77;;;;;;;23.93;79.04;100166.88;5105744;27;20202;-61
2023/08/15 04:29:29;;;;;;;5.40;3.60;;;;;;;23.93;79.38;100178.41;5086624;28;20185;-61
2023/08/15 04:31:55;;;;;;;5.40;4.00;;;;;;;23.92;79.15;100171.00;5069567;28;20424;-61
2023/08/15 04:34:20;;;;;;;5.37;3.90;;;;;;;23.92;78.75;100185.41;5080063;27;20193;-61
2023/08/15 04:36:46;;;;;;;4.73;3.70;;;;;;;23.93;79.26;100186.25;5109125;28;20170;-62
2023/08/15 04:39:18;;;;;;;4.70;4.03;;;;;;;23.92;79.16;100188.28;5057432;28;20187;-61
2023/08/15 04:41:44;;;;;;;5.30;3.83;;;;;;;23.92;79.43;100188.28;5090219;28;20432;-62
2023/08/15 04:44:10;;;;;;;5.83;4.33;;;;;;;23.93;79.16;100197.78;5107859;28;20609;-61
2023/08/15 04:46:36;;;;;;;6.63;3.80;;;;;;;23.92;79.20;100194.06;5109891;28;20194;-61
2023/08/15 04:49:01;;;;;;;6.63;3.73;;;;;;;23.92;78.95;100199.84;5109723;28;20436;-62
2023/08/15 04:51:27;;;;;;;4.53;4.00;;;;;;;23.91;78.78;100201.09;5104942;28;20180;-62
2023/08/15 04:53:52;;;;;;;7.47;4.10;;;;;;;23.92;78.97;100202.72;5089238;28;20657;-62
2023/08/15 04:56:18;;;;;;;6.00;4.03;;;;;;;23.93;79.33;100206.44;5106415;28;20580;-62
2023/08/15 04:58:43;;;;;;;5.53;3.30;;;;;;;23.91;78.90;100206.84;5106844;28;20611;-61
2023/08/15 05:01:09;;;;;;;4.83;4.20;;;;;;;23.92;78.80;100205.59;5102872;28;20189;-62
2023/08/15 05:03:35;;;;;;;5.80;4.20;;;;;;;23.93;79.29;100200.66;5070030;28;20163;-62
2023/08/15 05:06:02;;;;;;;4.90;3.73;;;;;;;23.92;79.10;100199.84;5088289;28;20244;-61
2023/08/15 05:08:27;;;;;;;7.20;4.17;;;;;;;23.93;78.87;100203.56;5103698;28;20440;-62
2023/08/15 05:10:54;;;;;;;7.83;3.87;;;;;;;23.92;78.65;100199.84;5108623;28;20412;-62
2023/08/15 05:13:19;;;;;;;5.47;4.03;;;;;;;23.92;78.93;100199.84;5100042;28;20194;-62
2023/08/15 05:15:45;;;;;;;4.50;3.77;;;;;;;23.93;78.68;100204.34;5111561;27;20429;-61
2023/08/15 05:18:10;;;;;;;7.80;4.13;;;;;;;23.93;78.50;100201.47;5107205;28;20225;-61
2023/08/15 05:20:36;;;;;;;5.43;3.90;;;;;;;23.93;78.99;100197.78;5090868;28;20186;-62
2023/08/15 05:23:02;;;;;;;4.50;3.40;;;;;;;23.92;78.72;100205.59;5087800;28;20985;-61
2023/08/15 05:25:27;;;;;;;5.80;4.40;;;;;;;23.93;78.78;100207.25;5087856;28;20261;-63
2023/08/15 05:27:52;;;;;;;5.23;4.07;;;;;;;23.93;78.57;100200.66;5089266;28;20186;-60
2023/08/15 05:30:18;;;;;;;4.80;3.93;;;;;;;23.93;78.86;100210.13;5069741;28;20186;-61
2023/08/15 05:32:43;;;;;;;4.30;3.70;;;;;;;23.93;78.97;100197.78;5087368;28;20174;-61
2023/08/15 05:35:09;;;;;;;5.10;3.97;;;;;;;23.93;79.10;100210.13;5101420;28;20181;-62
2023/08/15 05:37:35;;;;;;;4.67;3.97;;;;;;;23.92;78.92;100199.84;5115826;27;20628;-62
2023/08/15 05:40:00;;;;;;;5.80;4.43;;;;;;;23.92;78.68;100202.72;5116360;27;20181;-61
2023/08/15 05:42:26;;;;;;;6.67;4.40;;;;;;;23.93;78.76;100210.13;5100798;28;20209;-62
2023/08/15 05:44:51;;;;;;;5.87;4.53;;;;;;;23.93;78.66;100218.78;5105117;28;20186;-61
2023/08/15 05:47:19;;;;;;;6.90;4.47;;;;;;;23.93;78.96;100218.78;5104925;28;20201;-62
2023/08/15 05:49:44;;;;;;;6.53;4.53;;;;;;;23.91;78.70;100212.63;5108642;28;20194;-61
2023/08/15 05:52:10;;;;;;;7.67;4.57;;;;;;;23.92;78.67;100222.91;5107687;28;20458;-61
2023/08/15 05:54:35;;;;;;;5.23;3.80;;;;;;;23.93;78.95;100233.19;5097587;28;20177;-61
2023/08/15 05:57:01;;;;;;;6.60;4.40;;;;;;;23.92;79.06;100237.31;5108467;28;20711;-61
2023/08/15 05:59:26;;;;;;;6.57;4.40;;;;;;;23.88;78.83;100230.72;5116734;28;20165;-60
2023/08/15 06:01:52;;;;;;;8.07;4.50;;;;;;;23.88;78.88;100233.59;5122805;28;20182;-61
2023/08/15 06:04:17;;;;;;;6.10;4.40;;;;;;;23.87;79.15;100237.72;5088025;28;20174;-61
2023/08/15 06:06:43;;;;;;;7.60;4.80;;;;;;;23.88;79.33;100227.03;5088101;28;20530;-61
2023/08/15 06:09:08;;;;;;;5.50;4.30;;;;;;;23.88;79.35;100239.38;5088013;28;20201;-61
2023/08/15 06:11:33;;;;;;;7.40;4.50;;;;;;;23.90;79.77;100234.06;5090225;28;20182;-61
2023/08/15 06:13:59;;;;;;;12.40;5.50;;;;;;;23.91;79.96;100238.56;5087511;28;20615;-61
2023/08/15 06:16:24;;;;;;;6.90;4.63;;;;;;;23.91;80.11;100226.19;5087109;28;20732;-62
2023/08/15 06:18:50;;;;;;;8.50;5.37;;;;;;;23.87;80.12;100229.06;5089831;28;20884;-62
2023/08/15 06:21:15;;;;;;;13.90;5.00;;;;;;;23.89;80.41;100235.25;5088245;28;20721;-62
2023/08/15 06:23:41;;;;;;;12.73;5.40;;;;;;;23.88;80.59;100244.31;5096562;28;20189;-62
2023/08/15 06:26:06;;;;;;;7.70;5.37;;;;;;;23.90;80.81;100247.63;5090642;28;20206;-62
2023/08/15 06:28:32;;;;;;;7.30;5.00;;;;;;;23.93;80.57;100259.16;5107574;28;20178;-63
2023/08/15 06:30:57;;;;;;;6.43;4.97;;;;;;;23.92;81.15;100263.28;5101457;28;20174;-64
2023/08/15 06:33:22;;;;;;;5.93;4.93;;;;;;;23.94;80.86;100265.75;5114550;27;20181;-63
2023/08/15 06:35:48;;;;;;;6.17;4.90;;;;;;;23.93;80.96;100279.34;5127953;27;20165;-63
2023/08/15 06:38:13;;;;;;;5.00;4.00;;;;;;;23.94;80.94;100280.16;5115445;27;20657;-63
2023/08/15 06:40:39;;;;;;;5.40;4.87;;;;;;;23.94;80.81;100269.44;5091064;28;20217;-63
2023/08/15 06:43:04;;;;;;;5.60;4.90;;;;;;;23.94;80.76;100280.16;5092107;27;20708;-62
2023/08/15 06:45:30;;;;;;;5.07;4.37;;;;;;;23.94;80.80;100280.97;5091885;28;20193;-63
2023/08/15 06:47:55;;;;;;;7.33;4.83;;;;;;;23.95;80.84;100288.41;5090857;28;20178;-63
2023/08/15 06:50:21;;;;;;;6.93;4.43;;;;;;;23.95;80.70;100281.81;5093862;28;20214;-64
2023/08/15 06:52:47;;;;;;;6.07;4.50;;;;;;;23.94;80.64;100278.09;5096817;28;20178;-63
2023/08/15 06:55:12;;;;;;;6.63;4.60;;;;;;;23.95;80.90;100284.69;5111507;28;20181;-62
2023/08/15 06:57:38;;;;;;;6.13;4.60;;;;;;;23.95;80.61;100291.28;5111734;28;20161;-64
2023/08/15 07:00:06;;;;;;;5.80;4.33;;;;;;;23.94;80.72;100286.75;5107069;28;20185;-64
2023/08/15 07:02:32;;;;;;;8.00;5.40;;;;;;;23.94;80.68;100283.84;5111884;28;20684;-64
2023/08/15 07:04:57;;;;;;;7.17;5.10;;;;;;;23.94;80.90;100277.28;5106984;28;20443;-63
2023/08/15 07:07:23;;;;;;;7.47;5.03;;;;;;;23.95;80.75;100270.28;5091196;28;20628;-63
2023/08/15 07:09:49;;;;;;;8.10;5.00;;;;;;;23.95;80.73;100279.75;5105434;27;20165;-64
2023/08/15 07:12:17;;;;;;;5.80;4.17;;;;;;;23.95;80.76;100281.81;5097775;27;20212;-63
2023/08/15 07:14:45;;;;;;;6.60;4.90;;;;;;;23.94;80.86;100283.84;5090307;28;20481;-64
2023/08/15 07:17:11;;;;;;;5.60;5.00;;;;;;;23.95;80.81;100285.53;5106165;27;21033;-63
2023/08/15 07:19:37;;;;;;;4.63;4.20;;;;;;;23.95;80.79;100276.03;5089941;28;20404;-64
2023/08/15 07:22:03;;;;;;;6.67;5.00;;;;;;;23.96;80.83;100280.56;5089973;28;20265;-63
2023/08/15 07:24:28;;;;;;;5.57;4.40;;;;;;;23.96;80.83;100290.06;5105467;28;20938;-62
2023/08/15 07:26:54;;;;;;;5.23;4.43;;;;;;;23.96;81.01;100290.06;5110519;28;20635;-63
2023/08/15 07:29:19;;;;;;;7.60;4.77;;;;;;;23.95;81.11;100294.19;5092666;28;20514;-64
2023/08/15 07:31:45;;;;;;;5.70;4.87;;;;;;;23.95;80.95;100291.28;5108404;28;20603;-64
2023/08/15 07:34:10;;;;;;;7.17;4.97;;;;;;;23.95;81.24;100294.19;5109593;28;20178;-63
2023/08/15 07:36:36;;;;;;;5.40;4.80;;;;;;;23.96;81.57;100295.81;5110532;28;20174;-64
2023/08/15 07:39:01;;;;;;;6.57;5.37;;;;;;;23.96;80.91;100298.69;5083946;28;20193;-63
2023/08/15 07:41:27;;;;;;;5.13;4.23;;;;;;;23.96;81.08;100292.94;5109163;28;20165;-63
2023/08/15 07:43:52;;;;;;;6.90;5.00;;;;;;;23.96;80.97;100286.31;5105328;28;20177;-64
2023/08/15 07:46:18;;;;;;;6.47;4.77;;;;;;;23.96;80.84;100278.50;5095303;27;20193;-62
2023/08/15 07:48:44;;;;;;;6.50;5.50;;;;;;;23.95;80.88;100282.66;5109137;28;20255;-61
2023/08/15 07:51:10;;;;;;;7.83;5.13;;;;;;;23.97;80.99;100276.44;5089528;28;20239;-63
2023/08/15 07:53:36;;;;;;;7.70;5.47;;;;;;;23.97;80.81;100273.53;5087433;28;20556;-63
2023/08/15 07:56:01;;;;;;;6.30;5.13;;;;;;;23.98;80.90;100283.88;5099988;28;20420;-63
2023/08/15 07:58:27;;;;;;;6.70;4.63;;;;;;;23.98;81.09;100296.22;5088730;28;20175;-63
2023/08/15 08:00:52;;;;;;;6.83;4.60;;;;;;;23.98;81.15;100296.22;5083588;28;20236;-63
2023/08/15 08:03:18;;;;;;;5.60;4.43;;;;;;;23.99;80.89;100288.38;5101065;27;20187;-63
2023/08/15 08:05:43;;;;;;;6.27;5.53;;;;;;;23.98;81.00;100283.88;5129301;27;20280;-62
2023/08/15 08:08:09;;;;;;;5.30;4.80;;;;;;;23.98;80.88;100278.91;5090136;28;20186;-62
2023/08/15 08:10:34;;;;;;;8.03;5.33;;;;;;;23.99;81.13;100271.88;5091239;28;20646;-62
2023/08/15 08:13:00;;;;;;;6.53;5.43;;;;;;;24.00;81.09;100270.66;5089002;28;20681;-64
2023/08/15 08:15:27;;;;;;;8.20;4.93;;;;;;;23.99;80.99;100269.00;5089642;28;20264;-63
2023/08/15 08:17:52;;;;;;;7.07;4.80;;;;;;;23.99;81.09;100271.88;5090363;28;20665;-63
2023/08/15 08:20:18;;;;;;;6.80;4.80;;;;;;;24.00;80.82;100269.84;5088813;28;20409;-63
2023/08/15 08:22:43;;;;;;;7.77;4.90;;;;;;;23.99;81.02;100273.97;5096051;28;20190;-63
2023/08/15 08:25:16;;;;;;;5.90;5.00;;;;;;;23.99;80.83;100276.84;5105961;28;20644;-63
2023/08/15 08:27:50;;;;;;;6.47;4.43;;;;;;;23.99;80.73;100279.75;5106590;28;20669;-62
2023/08/15 08:30:17;;;;;;;8.93;5.20;;;;;;;23.98;80.85;100278.09;5088639;28;20421;-63
2023/08/15 08:32:43;;;;;;;4.90;4.17;;;;;;;23.97;81.08;100288.81;5088546;28;20416;-63
2023/08/15 08:35:09;;;;;;;6.93;5.37;;;;;;;23.99;80.96;100288.38;5117366;27;20485;-63
2023/08/15 08:37:35;;;;;;;7.33;5.27;;;;;;;23.99;80.64;100289.19;5129945;27;20221;-62
2023/08/15 08:40:00;;;;;;;6.30;4.90;;;;;;;24.00;80.59;100287.97;5104213;27;20444;-62
2023/08/15 08:42:26;;;;;;;6.17;4.63;;;;;;;24.00;80.84;100298.69;5089651;28;20197;-63
2023/08/15 08:44:51;;;;;;;5.60;4.30;;;;;;;24.00;80.80;100296.63;5071093;28;20198;-63
2023/08/15 08:47:20;;;;;;;5.40;4.73;;;;;;;24.02;80.64;100296.19;5068014;28;20221;-62
2023/08/15 08:49:46;;;;;;;5.73;5.00;;;;;;;24.01;80.56;100292.50;5073066;28;20201;-62
2023/08/15 08:52:13;;;;;;;6.17;4.70;;;;;;;24.01;80.87;100286.72;5084116;28;20510;-62
2023/08/15 08:54:38;;;;;;;6.50;5.00;;;;;;;24.03;80.88;100298.66;5108503;28;20640;-64
2023/08/15 08:57:04;;;;;;;10.60;4.97;;;;;;;24.03;81.18;100298.66;5089390;28;20424;-63
2023/08/15 08:59:29;;;;;;;7.60;5.80;;;;;;;24.04;81.04;100294.53;5071152;28;20212;-63
2023/08/15 09:01:55;;;;;;;7.90;5.77;;;;;;;24.05;81.21;100299.09;5070293;28;20182;-63
2023/08/15 09:04:20;;;;;;;9.37;6.33;;;;;;;24.07;81.10;100304.41;5094960;28;20197;-63
2023/08/15 09:06:46;;;;;;;6.00;5.37;;;;;;;24.07;81.56;100292.88;5102355;27;20255;-63
2023/08/15 09:09:12;;;;;;;6.37;5.37;;;;;;;24.06;81.34;100297.84;5071868;27;20535;-64
2023/08/15 09:11:37;;;;;;;6.17;5.50;;;;;;;24.08;81.45;100303.19;5089911;28;20497;-62
2023/08/15 09:14:04;;;;;;;6.23;5.47;;;;;;;24.07;81.18;100311.00;5086970;28;20167;-62
2023/08/15 09:16:30;;;;;;;7.50;5.27;;;;;;;24.09;81.42;100330.78;5071166;28;20266;-63
2023/08/15 09:18:56;;;;;;;8.10;5.77;;;;;;;24.08;81.68;100324.19;5087000;28;20491;-61
2023/08/15 09:21:23;;;;;;;7.77;5.43;;;;;;;24.09;81.78;100331.59;5087584;28;20901;-63
2023/08/15 09:23:48;;;;;;;6.63;5.27;;;;;;;24.08;81.56;100332.84;5103952;28;20639;-62
2023/08/15 09:26:14;;;;;;;10.33;5.53;;;;;;;24.08;81.61;100334.94;5089742;28;20455;-63
2023/08/15 09:28:40;;;;;;;8.63;6.17;;;;;;;24.08;81.79;100334.94;5097541;28;20269;-62
2023/08/15 09:31:07;;;;;;;6.90;5.87;;;;;;;24.07;81.53;100345.63;5088434;28;20435;-62
2023/08/15 09:33:34;;;;;;;9.27;6.33;;;;;;;24.09;81.72;100348.91;5090138;28;20450;-62
2023/08/15 09:36:03;;;;;;;7.17;5.80;;;;;;;24.10;81.37;100349.75;5088714;28;20432;-63
2023/08/15 09:38:29;;;;;;;7.33;6.20;;;;;;;24.10;81.83;100355.50;5070966;28;20392;-63
2023/08/15 09:40:55;;;;;;;11.57;6.13;;;;;;;24.11;81.62;100363.75;5090831;28;20800;-63
2023/08/15 09:43:20;;;;;;;10.83;6.20;;;;;;;24.12;81.16;100365.38;5093435;27;20190;-62
2023/08/15 09:45:46;;;;;;;11.40;6.00;;;;;;;24.12;80.97;100371.16;5118294;27;20931;-63
2023/08/15 09:48:12;;;;;;;8.37;6.17;;;;;;;24.16;81.36;100362.47;5090302;28;20186;-63
2023/08/15 09:50:37;;;;;;;8.50;6.53;;;;;;;24.16;81.00;100380.63;5087244;28;20174;-63
2023/08/15 09:53:03;;;;;;;10.17;6.90;;;;;;;24.16;81.51;100374.03;5073854;28;20186;-62
2023/08/15 09:55:29;;;;;;;10.33;6.30;;;;;;;24.16;81.62;100380.63;5096704;28;20227;-63
2023/08/15 09:57:54;;;;;;;9.80;7.13;;;;;;;24.17;81.66;100381.44;5089785;28;20173;-63
2023/08/15 10:00:20;;;;;;;14.63;7.03;;;;;;;24.15;81.49;100367.44;5085998;28;20170;-62
2023/08/15 10:02:56;;;;;;;11.60;6.90;;;;;;;24.15;81.26;100367.44;5107459;28;20181;-62
2023/08/15 10:05:21;;;;;;;16.00;6.47;;;;;;;24.14;81.77;100367.88;5102927;28;20185;-63
2023/08/15 10:07:47;;;;;;;8.53;6.93;;;;;;;24.14;81.48;100371.56;5107474;28;20972;-62
2023/08/15 10:10:13;;;;;;;9.60;6.70;;;;;;;24.13;81.74;100374.88;5111563;27;20178;-63
2023/08/15 10:12:40;;;;;;;11.07;6.80;;;;;;;24.13;81.95;100375.69;5081628;28;20265;-62
2023/08/15 10:15:09;;;;;;;10.27;6.50;;;;;;;24.12;81.63;100385.59;5073035;28;20434;-62
2023/08/15 10:17:34;;;;;;;11.30;7.20;;;;;;;24.12;81.63;100385.59;5076146;28;20963;-62
2023/08/15 10:20:13;;;;;;;9.73;6.40;;;;;;;24.13;81.58;100392.19;5074416;28;20435;-63
2023/08/15 10:22:39;;;;;;;8.30;7.13;;;;;;;24.14;81.80;100402.47;5091944;28;20261;-63
2023/08/15 10:25:17;;;;;;;9.27;6.70;;;;;;;24.14;81.56;100397.53;5086823;28;20470;-62
2023/08/15 10:27:48;;;;;;;8.17;6.30;;;;;;;24.13;81.59;100398.75;5112399;28;20493;-62
2023/08/15 10:30:29;;;;;;;11.07;7.50;;;;;;;24.14;81.80;100397.53;5108119;28;20818;-63
2023/08/15 10:32:58;;;;;;;9.90;7.00;;;;;;;24.15;81.47;100402.06;5114764;27;21023;-62
2023/08/15 10:35:24;;;;;;;11.57;6.80;;;;;;;24.15;81.36;100404.13;5112175;27;20471;-63
2023/08/15 10:37:50;;;;;;;8.53;6.77;;;;;;;24.15;81.48;100412.78;5082473;27;20411;-63
2023/08/15 10:40:15;;;;;;;10.00;6.40;;;;;;;24.16;81.79;100408.66;5107720;28;20431;-61
2023/08/15 10:43:02;;;;;;;10.43;6.77;;;;;;;24.16;81.27;100405.75;5073959;28;20216;-63
2023/08/15 10:45:31;;;;;;;15.10;7.57;;;;;;;24.17;81.52;100401.63;5092850;28;20181;-62
2023/08/15 10:47:57;;;;;;;10.90;6.77;;;;;;;24.16;81.29;100412.38;5092488;28;20470;-63
2023/08/15 10:50:23;;;;;;;8.80;6.70;;;;;;;24.15;81.36;100399.19;5073344;28;20436;-63
2023/08/15 10:53:02;;;;;;;7.70;6.20;;;;;;;24.16;81.39;100400.00;5098298;28;20548;-63
2023/08/15 10:55:34;;;;;;;9.07;6.73;;;;;;;24.17;80.78;100411.13;5103432;28;20436;-63
2023/08/15 10:58:02;;;;;;;10.87;7.07;;;;;;;24.17;81.34;100408.25;5100589;27;20415;-63
2023/08/15 11:00:28;;;;;;;9.47;6.83;;;;;;;24.17;81.13;100405.34;5107522;28;20473;-63
2023/08/15 11:02:53;;;;;;;7.73;6.63;;;;;;;24.19;80.62;100405.75;5090246;28;20432;-62
2023/08/15 11:05:19;;;;;;;9.40;7.20;;;;;;;24.20;80.72;100401.66;5090714;28;20209;-63
2023/08/15 11:07:45;;;;;;;9.80;6.20;;;;;;;24.21;80.34;100402.44;5107741;28;20283;-63
2023/08/15 11:10:13;;;;;;;9.73;6.27;;;;;;;24.20;80.38;100403.69;5091468;28;20688;-63
2023/08/15 11:12:48;;;;;;;7.80;6.50;;;;;;;24.20;80.53;100395.88;5090452;28;20174;-62
2023/08/15 11:15:15;;;;;;;6.83;5.57;;;;;;;24.23;80.02;100391.34;5097477;28;20443;-63
2023/08/15 11:17:44;;;;;;;8.23;6.10;;;;;;;24.22;80.00;100383.88;5089938;28;20562;-62
2023/08/15 11:20:10;;;;;;;10.30;6.27;;;;;;;24.22;79.81;100390.50;5090360;28;20421;-62